createdAt,value
2018-12-07T00:02:21.405Z,71.97
2018-12-07T00:04:48.799Z,73.36
2018-12-07T00:07:16.424Z,73.42
2018-12-07T00:09:43.821Z,72.87
2018-12-07T00:12:11.205Z,72.58
2018-12-07T00:14:38.673Z,72.41
2018-12-07T00:17:06.109Z,71.87
2018-12-07T00:19:33.561Z,71.86
2018-12-07T00:22:01.029Z,71.28
2018-12-07T00:24:28.474Z,70.74
2018-12-07T00:26:55.863Z,70.21
2018-12-07T00:29:23.345Z,69.82
2018-12-07T00:31:50.737Z,69.64
2018-12-07T00:34:18.217Z,69.62
2018-12-07T00:36:45.613Z,70.12
2018-12-07T00:39:13.130Z,70.18
2018-12-07T00:41:40.521Z,70.16
2018-12-07T00:44:07.916Z,70.01
2018-12-07T00:46:35.301Z,70.23
2018-12-07T00:49:02.697Z,70.54
2018-12-07T00:51:30.167Z,70.78
2018-12-07T00:53:57.634Z,70.99
2018-12-07T00:56:25.032Z,71.04
2018-12-07T00:58:52.537Z,71.07
2018-12-07T01:01:19.929Z,71.29
2018-12-07T01:03:47.326Z,71.25
2018-12-07T01:06:14.789Z,71.61
2018-12-07T01:08:42.188Z,71.95
2018-12-07T01:11:09.620Z,72.04
2018-12-07T01:13:37.094Z,72.32
2018-12-07T01:16:04.533Z,72.49
2018-12-07T01:18:32.061Z,72.63
2018-12-07T01:20:59.498Z,72.86
2018-12-07T01:23:26.902Z,73.15
2018-12-07T01:25:54.325Z,73.30
2018-12-07T01:28:21.717Z,73.70
2018-12-07T01:30:49.192Z,73.76
2018-12-07T01:33:16.661Z,74.23
2018-12-07T01:35:44.049Z,74.48
2018-12-07T01:38:11.585Z,74.61
2018-12-07T01:40:38.996Z,74.68
2018-12-07T01:43:06.381Z,74.74
2018-12-07T01:45:33.862Z,74.89
2018-12-07T01:48:01.241Z,74.82
2018-12-07T01:50:28.705Z,75.17
2018-12-07T01:52:56.151Z,75.22
2018-12-07T01:55:23.582Z,75.38
2018-12-07T01:57:50.986Z,75.47
2018-12-07T02:00:18.458Z,75.69
2018-12-07T02:02:45.990Z,75.75
2018-12-07T02:05:13.565Z,76.02
2018-12-07T02:07:40.973Z,76.02
2018-12-07T02:10:08.456Z,76.10
2018-12-07T02:12:36.065Z,76.40
2018-12-07T02:15:03.846Z,76.76
2018-12-07T02:17:31.242Z,76.92
2018-12-07T02:19:58.638Z,77.10
2018-12-07T02:22:26.114Z,77.18
2018-12-07T02:24:53.505Z,77.39
2018-12-07T02:27:20.896Z,77.67
2018-12-07T02:29:48.382Z,78.10
2018-12-07T02:32:15.773Z,78.12
2018-12-07T02:34:43.166Z,78.42
2018-12-07T02:37:10.567Z,78.83
2018-12-07T02:39:38.073Z,78.78
2018-12-07T02:42:05.538Z,78.67
2018-12-07T02:44:32.946Z,78.98
2018-12-07T02:47:00.330Z,78.99
2018-12-07T02:49:27.717Z,78.97
2018-12-07T02:51:55.115Z,79.21
2018-12-07T02:54:22.514Z,79.18
2018-12-07T02:56:49.905Z,79.33
2018-12-07T02:59:17.293Z,79.27
2018-12-07T03:01:44.685Z,79.25
2018-12-07T03:04:12.078Z,79.54
2018-12-07T03:06:39.470Z,79.67
2018-12-07T03:09:06.937Z,79.84
2018-12-07T03:11:37.702Z,79.83
2018-12-07T03:14:05.104Z,79.70
2018-12-07T03:16:32.577Z,79.78
2018-12-07T03:19:00.009Z,80.21
2018-12-07T03:21:27.444Z,80.03
2018-12-07T03:23:54.915Z,80.11
2018-12-07T03:26:22.404Z,80.00
2018-12-07T03:28:49.788Z,79.93
2018-12-07T03:31:17.219Z,80.04
2018-12-07T03:33:44.734Z,79.77
2018-12-07T03:36:12.202Z,80.01
2018-12-07T03:38:39.674Z,80.18
2018-12-07T03:41:07.095Z,80.17
2018-12-07T03:43:34.585Z,80.29
2018-12-07T03:46:02.094Z,80.14
2018-12-07T03:48:29.574Z,80.46
2018-12-07T03:50:57.051Z,80.36
2018-12-07T03:53:24.725Z,80.51
2018-12-07T03:55:52.118Z,80.76
2018-12-07T03:58:19.551Z,80.86
2018-12-07T04:00:46.987Z,80.94
2018-12-07T04:03:14.460Z,80.86
2018-12-07T04:05:41.931Z,80.64
2018-12-07T04:08:09.394Z,80.81
2018-12-07T04:10:36.922Z,80.92
2018-12-07T04:13:04.414Z,80.91
2018-12-07T04:15:31.921Z,80.65
2018-12-07T04:17:59.407Z,80.81
2018-12-07T04:20:26.797Z,80.59
2018-12-07T04:22:54.288Z,80.53
2018-12-07T04:25:21.753Z,80.32
2018-12-07T04:27:49.140Z,80.21
2018-12-07T04:30:23.834Z,80.11
2018-12-07T04:32:51.228Z,80.04
2018-12-07T04:35:18.747Z,80.06
2018-12-07T04:37:46.194Z,80.03
2018-12-07T04:40:13.659Z,79.90
2018-12-07T04:42:41.224Z,80.22
2018-12-07T04:45:08.745Z,80.01
2018-12-07T04:47:36.320Z,80.03
2018-12-07T04:50:04.110Z,80.18
2018-12-07T04:52:31.579Z,80.15
2018-12-07T04:54:59.105Z,80.13
2018-12-07T04:57:26.540Z,80.24
2018-12-07T04:59:54.010Z,80.54
2018-12-07T05:02:21.403Z,80.41
2018-12-07T05:04:48.929Z,80.58
2018-12-07T05:07:16.404Z,80.62
2018-12-07T05:09:43.782Z,80.60
2018-12-07T05:12:11.179Z,80.76
2018-12-07T05:14:38.640Z,80.76
2018-12-07T05:17:06.113Z,80.82
2018-12-07T05:19:33.511Z,80.83
2018-12-07T05:22:01.033Z,81.06
2018-12-07T05:24:28.424Z,81.45
2018-12-07T05:26:55.827Z,81.52
2018-12-07T05:29:23.215Z,81.46
2018-12-07T05:31:50.846Z,81.33
2018-12-07T05:34:18.373Z,81.37
2018-12-07T05:36:45.834Z,81.47
2018-12-07T05:39:13.320Z,81.40
2018-12-07T05:41:40.832Z,81.79
2018-12-07T05:44:08.303Z,81.63
2018-12-07T05:46:35.765Z,81.66
2018-12-07T05:49:03.273Z,81.92
2018-12-07T05:51:30.782Z,82.03
2018-12-07T05:53:58.178Z,81.80
2018-12-07T05:56:25.563Z,81.90
2018-12-07T05:58:52.958Z,81.96
2018-12-07T06:01:20.351Z,81.98
2018-12-07T06:03:47.800Z,82.24
2018-12-07T06:06:15.267Z,82.27
2018-12-07T06:08:42.749Z,82.41
2018-12-07T06:11:10.138Z,82.52
2018-12-07T06:13:37.538Z,82.32
2018-12-07T06:16:04.927Z,82.50
2018-12-07T06:18:32.395Z,82.55
2018-12-07T06:20:59.786Z,82.60
2018-12-07T06:23:27.255Z,82.76
2018-12-07T06:25:54.741Z,82.65
2018-12-07T06:28:22.138Z,82.71
2018-12-07T06:30:49.666Z,82.45
2018-12-07T06:33:17.186Z,82.55
2018-12-07T06:35:44.590Z,82.81
2018-12-07T06:38:11.977Z,83.10
2018-12-07T06:40:39.381Z,82.83
2018-12-07T06:43:06.837Z,82.78
2018-12-07T06:45:35.158Z,82.86
2018-12-07T06:48:03.039Z,82.97
2018-12-07T06:50:30.479Z,83.39
2018-12-07T06:52:57.955Z,83.45
2018-12-07T06:55:25.414Z,83.13
2018-12-07T06:57:52.805Z,83.14
2018-12-07T07:00:20.338Z,82.94
2018-12-07T07:02:47.761Z,82.82
2018-12-07T07:05:15.160Z,82.76
2018-12-07T07:07:42.566Z,82.72
2018-12-07T07:10:10.033Z,82.80
2018-12-07T07:12:37.421Z,82.65
2018-12-07T07:15:04.998Z,82.74
2018-12-07T07:17:32.525Z,82.72
2018-12-07T07:19:59.913Z,82.58
2018-12-07T07:22:27.310Z,82.61
2018-12-07T07:24:54.813Z,82.66
2018-12-07T07:27:22.205Z,82.83
2018-12-07T07:29:49.592Z,82.63
2018-12-07T07:32:16.981Z,82.47
2018-12-07T07:34:44.369Z,82.47
2018-12-07T07:37:11.757Z,82.29
2018-12-07T07:39:39.145Z,82.49
2018-12-07T07:42:06.540Z,82.25
2018-12-07T07:44:33.921Z,82.31
2018-12-07T07:47:01.429Z,82.15
2018-12-07T07:49:28.931Z,82.18
2018-12-07T07:51:56.324Z,82.13
2018-12-07T07:54:23.754Z,82.20
2018-12-07T07:56:51.140Z,82.22
2018-12-07T07:59:18.522Z,82.07
2018-12-07T08:01:45.965Z,82.07
2018-12-07T08:04:13.421Z,82.10
2018-12-07T08:06:40.806Z,81.83
2018-12-07T08:09:08.330Z,81.81
2018-12-07T08:11:35.784Z,81.80
2018-12-07T08:14:03.259Z,81.62
2018-12-07T08:16:30.654Z,81.59
2018-12-07T08:18:58.045Z,81.47
2018-12-07T08:21:25.437Z,81.54
2018-12-07T08:23:52.923Z,81.36
2018-12-07T08:26:20.354Z,81.37
2018-12-07T08:28:47.741Z,81.43
2018-12-07T08:31:15.149Z,81.60
2018-12-07T08:33:42.539Z,81.51
2018-12-07T08:36:09.917Z,81.33
2018-12-07T08:38:37.337Z,81.17
2018-12-07T08:41:05.021Z,81.65
2018-12-07T08:43:32.414Z,81.53
2018-12-07T08:45:59.826Z,81.26
2018-12-07T08:48:27.213Z,81.34
2018-12-07T08:50:54.602Z,81.11
2018-12-07T08:53:22.004Z,81.11
2018-12-07T08:55:49.388Z,81.21
2018-12-07T08:58:16.789Z,81.46
2018-12-07T09:00:44.230Z,81.24
2018-12-07T09:03:11.657Z,81.04
2018-12-07T09:05:39.051Z,80.93
2018-12-07T09:08:06.458Z,80.72
2018-12-07T09:10:33.849Z,80.69
2018-12-07T09:13:01.256Z,80.81
2018-12-07T09:15:28.737Z,80.51
2018-12-07T09:17:56.134Z,80.76
2018-12-07T09:20:23.527Z,80.61
2018-12-07T09:22:50.922Z,80.54
2018-12-07T09:25:18.426Z,80.20
2018-12-07T09:27:45.813Z,80.38
2018-12-07T09:30:13.200Z,80.22
2018-12-07T09:32:40.588Z,80.12
2018-12-07T09:35:08.059Z,80.22
2018-12-07T09:37:35.532Z,79.91
2018-12-07T09:40:03.171Z,79.95
2018-12-07T09:42:30.610Z,79.96
2018-12-07T09:44:58.014Z,80.01
2018-12-07T09:47:25.392Z,79.98
2018-12-07T09:49:52.806Z,79.74
2018-12-07T09:52:20.232Z,79.76
2018-12-07T09:54:47.630Z,79.70
2018-12-07T09:57:15.024Z,79.80
2018-12-07T09:59:42.421Z,79.65
2018-12-07T10:02:09.804Z,79.66
2018-12-07T10:04:37.277Z,79.53
2018-12-07T10:07:04.709Z,79.63
2018-12-07T10:09:32.145Z,79.40
2018-12-07T10:11:59.550Z,79.21
2018-12-07T10:14:26.943Z,79.07
2018-12-07T10:16:54.338Z,78.74
2018-12-07T10:19:21.773Z,78.83
2018-12-07T10:21:49.368Z,78.97
2018-12-07T10:24:16.768Z,78.29
2018-12-07T10:26:44.246Z,77.83
2018-12-07T10:29:11.640Z,78.12
2018-12-07T10:31:39.030Z,78.03
2018-12-07T10:34:06.442Z,78.14
2018-12-07T10:36:33.909Z,78.09
2018-12-07T10:39:01.302Z,78.25
2018-12-07T10:41:28.773Z,78.17
2018-12-07T10:43:56.179Z,78.08
2018-12-07T10:46:23.590Z,78.10
2018-12-07T10:48:50.985Z,77.51
2018-12-07T10:51:18.457Z,77.51
2018-12-07T10:53:45.932Z,77.69
2018-12-07T10:56:13.373Z,77.82
2018-12-07T10:58:40.836Z,77.37
2018-12-07T11:01:13.918Z,77.46
2018-12-07T11:03:46.769Z,77.10
2018-12-07T11:06:19.857Z,76.97
2018-12-07T11:09:09.834Z,76.41
2018-12-07T11:11:40.089Z,76.78
2018-12-07T11:14:11.791Z,76.60
2018-12-07T11:16:45.051Z,76.74
2018-12-07T11:19:18.278Z,76.80
2018-12-07T11:21:51.318Z,76.46
2018-12-07T11:24:24.352Z,76.30
2018-12-07T11:26:57.396Z,76.25
2018-12-07T11:29:30.517Z,75.50
2018-12-07T11:32:03.587Z,75.30
2018-12-07T11:34:32.915Z,75.32
2018-12-07T11:37:00.298Z,75.09
2018-12-07T11:39:27.692Z,75.43
2018-12-07T11:41:55.218Z,75.43
2018-12-07T11:44:22.669Z,74.80
2018-12-07T11:46:50.093Z,73.92
2018-12-07T11:49:17.573Z,74.11
2018-12-07T11:51:45.041Z,74.22
2018-12-07T11:54:12.505Z,73.96
2018-12-07T11:56:39.889Z,73.39
2018-12-07T11:59:07.277Z,72.86
2018-12-07T12:01:34.658Z,73.44
2018-12-07T12:04:02.127Z,72.08
2018-12-07T12:06:29.517Z,72.76
2018-12-07T12:08:56.985Z,72.64
2018-12-07T12:11:24.448Z,72.62
2018-12-07T12:13:51.849Z,72.76
2018-12-07T12:16:19.332Z,72.28
2018-12-07T12:18:46.842Z,72.34
2018-12-07T12:21:14.289Z,72.04
2018-12-07T12:23:41.777Z,71.64
2018-12-07T12:26:09.261Z,71.22
2018-12-07T12:28:36.701Z,70.67
2018-12-07T12:31:04.086Z,71.23
2018-12-07T12:33:31.474Z,71.23
2018-12-07T12:35:58.983Z,70.68
2018-12-07T12:38:26.365Z,70.99
2018-12-07T12:40:53.825Z,70.46
2018-12-07T12:43:21.265Z,70.29
2018-12-07T12:45:48.650Z,70.44
2018-12-07T12:48:16.170Z,70.56
2018-12-07T12:50:43.604Z,70.25
2018-12-07T12:53:11.175Z,70.76
2018-12-07T12:55:38.559Z,69.93
2018-12-07T12:58:06.066Z,69.54
2018-12-07T13:00:33.594Z,69.88
2018-12-07T13:03:00.977Z,69.82
2018-12-07T13:05:28.455Z,69.28
2018-12-07T13:07:55.911Z,69.00
2018-12-07T13:10:23.294Z,68.50
2018-12-07T13:12:50.681Z,68.95
2018-12-07T13:15:18.271Z,68.51
2018-12-07T13:17:45.659Z,68.32
2018-12-07T13:20:13.086Z,68.28
2018-12-07T13:22:40.555Z,67.92
2018-12-07T13:25:08.026Z,67.99
2018-12-07T13:27:35.463Z,67.68
2018-12-07T13:30:03.002Z,67.92
2018-12-07T13:32:30.554Z,67.70
2018-12-07T13:34:57.934Z,68.20
2018-12-07T13:37:25.329Z,67.80
2018-12-07T13:39:52.779Z,67.48
2018-12-07T13:42:20.309Z,67.95
2018-12-07T13:44:47.879Z,67.78
2018-12-07T13:47:15.547Z,67.34
2018-12-07T13:49:43.019Z,67.61
2018-12-07T13:52:10.488Z,67.58
2018-12-07T13:54:38.050Z,67.49
2018-12-07T13:57:05.733Z,66.94
2018-12-07T13:59:33.434Z,67.18
2018-12-07T14:02:00.902Z,66.84
2018-12-07T14:04:28.422Z,67.25
2018-12-07T14:06:56.086Z,67.27
2018-12-07T14:09:23.676Z,66.93
2018-12-07T14:11:51.329Z,66.63
2018-12-07T14:14:18.911Z,67.06
2018-12-07T14:16:46.476Z,66.59
2018-12-07T14:19:14.033Z,66.37
2018-12-07T14:21:41.694Z,66.94
2018-12-07T14:24:09.277Z,66.07
2018-12-07T14:26:36.746Z,65.60
2018-12-07T14:29:04.507Z,65.56
2018-12-07T14:31:32.024Z,66.20
2018-12-07T14:33:59.675Z,66.80
2018-12-07T14:36:27.145Z,67.73
2018-12-07T14:38:54.653Z,67.39
2018-12-07T14:41:22.100Z,67.20
2018-12-07T14:43:49.686Z,66.98
2018-12-07T14:46:17.343Z,66.61
2018-12-07T14:48:44.992Z,67.60
2018-12-07T14:51:12.530Z,67.62
2018-12-07T14:53:40.051Z,67.85
2018-12-07T14:56:07.693Z,67.85
2018-12-07T14:58:35.254Z,67.93
2018-12-07T15:01:02.827Z,67.20
2018-12-07T15:03:30.261Z,67.32
2018-12-07T15:05:57.905Z,67.46
2018-12-07T15:08:25.568Z,66.86
2018-12-07T15:10:53.056Z,67.56
2018-12-07T15:13:20.720Z,67.39
2018-12-07T15:15:48.121Z,67.48
2018-12-07T15:18:15.701Z,68.55
2018-12-07T15:20:43.223Z,69.78
2018-12-07T15:23:10.733Z,70.68
2018-12-07T15:25:41.453Z,70.26
2018-12-07T15:28:09.346Z,70.08
2018-12-07T15:30:36.928Z,70.89
2018-12-07T15:33:05.016Z,71.82
2018-12-07T15:35:32.643Z,73.03
2018-12-07T15:38:00.412Z,73.95
2018-12-07T15:40:28.082Z,74.80
2018-12-07T15:42:55.654Z,75.80
2018-12-07T15:45:23.095Z,76.37
2018-12-07T15:47:50.572Z,76.76
2018-12-07T15:50:24.876Z,77.35
2018-12-07T15:52:47.473Z,77.46
2018-12-07T15:55:14.987Z,77.96
2018-12-07T15:57:42.727Z,78.12
2018-12-07T16:00:10.239Z,77.99
2018-12-07T16:02:37.667Z,77.82
2018-12-07T16:05:06.135Z,78.08
2018-12-07T16:07:33.844Z,78.09
2018-12-07T16:10:01.432Z,78.26
2018-12-07T16:12:29.186Z,78.37
2018-12-07T16:14:56.942Z,78.32
2018-12-07T16:17:24.514Z,78.53
2018-12-07T16:19:52.104Z,78.43
2018-12-07T16:22:19.982Z,78.45
2018-12-07T16:24:47.679Z,78.53
2018-12-07T16:27:15.228Z,78.71
2018-12-07T16:29:42.934Z,78.85
2018-12-07T16:32:10.551Z,78.85
2018-12-07T16:34:38.078Z,78.98
2018-12-07T16:37:05.686Z,78.98
2018-12-07T16:39:33.326Z,79.15
2018-12-07T16:42:01.278Z,79.23
2018-12-07T16:44:28.744Z,79.15
2018-12-07T16:46:56.259Z,79.67
2018-12-07T16:49:23.951Z,79.68
2018-12-07T16:51:51.933Z,79.82
2018-12-07T16:54:19.501Z,79.81
2018-12-07T16:56:47.099Z,79.99
2018-12-07T16:59:14.959Z,79.80
2018-12-07T17:01:42.616Z,80.08
2018-12-07T17:04:10.058Z,79.99
2018-12-07T17:06:37.722Z,80.17
2018-12-07T17:09:06.699Z,80.11
2018-12-07T17:11:34.295Z,79.97
2018-12-07T17:14:02.090Z,80.15
2018-12-07T17:16:29.629Z,80.16
2018-12-07T17:18:57.278Z,80.08
2018-12-07T17:21:24.830Z,80.33
2018-12-07T17:23:52.698Z,80.25
2018-12-07T17:26:20.391Z,80.29
2018-12-07T17:28:48.126Z,80.29
2018-12-07T17:31:15.737Z,80.17
2018-12-07T17:33:43.443Z,80.24
2018-12-07T17:36:11.123Z,80.29
2018-12-07T17:38:38.558Z,80.30
2018-12-07T17:41:06.198Z,80.35
2018-12-07T17:43:33.949Z,80.61
2018-12-07T17:46:01.562Z,80.62
2018-12-07T17:48:29.230Z,80.86
2018-12-07T17:50:56.694Z,81.30
2018-12-07T17:53:24.421Z,81.54
2018-12-07T17:55:52.164Z,80.69
2018-12-07T17:58:19.744Z,79.79
2018-12-07T18:00:47.630Z,79.40
2018-12-07T18:03:15.111Z,78.54
2018-12-07T18:05:42.559Z,78.15
2018-12-07T18:08:10.144Z,77.79
2018-12-07T18:10:37.729Z,78.12
2018-12-07T18:13:05.405Z,78.54
2018-12-07T18:15:32.853Z,79.09
2018-12-07T18:18:00.344Z,79.22
2018-12-07T18:20:27.968Z,79.42
2018-12-07T18:22:55.600Z,79.55
2018-12-07T18:25:23.498Z,79.57
2018-12-07T18:27:51.329Z,79.58
2018-12-07T18:30:19.024Z,79.75
2018-12-07T18:32:46.758Z,79.76
2018-12-07T18:35:14.288Z,80.00
2018-12-07T18:37:42.150Z,80.01
2018-12-07T18:40:09.743Z,80.08
2018-12-07T18:42:37.286Z,80.63
2018-12-07T18:45:04.858Z,80.72
2018-12-07T18:47:32.421Z,81.10
2018-12-07T18:50:00.012Z,80.91
2018-12-07T18:52:27.693Z,81.47
2018-12-07T18:54:55.407Z,81.57
2018-12-07T18:57:22.990Z,81.85
2018-12-07T18:59:50.635Z,81.42
2018-12-07T19:02:18.302Z,81.62
2018-12-07T19:04:45.877Z,81.89
2018-12-07T19:07:13.397Z,80.60
2018-12-07T19:09:40.854Z,79.56
2018-12-07T19:12:08.398Z,80.38
2018-12-07T19:14:35.905Z,79.72
2018-12-07T19:17:03.819Z,79.05
2018-12-07T19:19:31.654Z,79.86
2018-12-07T19:21:59.675Z,80.36
2018-12-07T19:24:27.513Z,80.21
2018-12-07T19:26:55.284Z,79.34
2018-12-07T19:29:23.022Z,79.56
2018-12-07T19:31:50.852Z,78.83
2018-12-07T19:34:18.706Z,78.76
2018-12-07T19:36:46.358Z,79.22
2018-12-07T19:39:14.146Z,79.23
2018-12-07T19:41:41.814Z,78.81
2018-12-07T19:44:09.459Z,78.67
2018-12-07T19:46:37.071Z,78.93
2018-12-07T19:49:04.970Z,78.49
2018-12-07T19:51:32.785Z,78.19
2018-12-07T19:54:00.349Z,77.94
2018-12-07T19:56:27.790Z,78.00
2018-12-07T19:58:55.260Z,77.76
2018-12-07T20:01:22.661Z,77.88
2018-12-07T20:03:50.054Z,78.33
2018-12-07T20:06:17.597Z,78.19
2018-12-07T20:08:45.065Z,77.62
2018-12-07T20:11:12.759Z,77.60
2018-12-07T20:13:40.358Z,78.08
2018-12-07T20:16:07.962Z,78.09
2018-12-07T20:18:35.671Z,78.08
2018-12-07T20:21:03.234Z,78.24
2018-12-07T20:23:30.806Z,78.80
2018-12-07T20:25:58.391Z,79.03
2018-12-07T20:28:25.980Z,78.80
2018-12-07T20:30:53.436Z,78.55
2018-12-07T20:33:20.920Z,78.95
2018-12-07T20:35:48.447Z,79.29
2018-12-07T20:38:16.013Z,79.28
2018-12-07T20:40:44.501Z,79.43
2018-12-07T20:43:12.362Z,79.35
2018-12-07T20:45:39.912Z,78.69
2018-12-07T20:48:07.591Z,79.04
2018-12-07T20:50:35.573Z,78.55
2018-12-07T20:53:03.382Z,78.57
2018-12-07T20:55:31.149Z,77.91
2018-12-07T20:57:58.817Z,77.96
2018-12-07T21:00:26.219Z,77.19
2018-12-07T21:02:53.922Z,77.82
2018-12-07T21:12:01.944Z,77.93
2018-12-07T21:14:29.923Z,77.83
2018-12-07T21:17:08.084Z,76.78
2018-12-07T21:19:37.286Z,76.53
2018-12-07T21:22:04.835Z,75.83
2018-12-07T21:24:32.772Z,75.64
2018-12-07T21:27:00.476Z,75.33
2018-12-07T21:29:28.175Z,75.15
2018-12-07T21:31:58.541Z,74.62
2018-12-07T21:37:24.543Z,75.01
2018-12-07T21:39:52.858Z,75.05
2018-12-07T21:42:20.372Z,75.56
2018-12-07T21:44:48.281Z,75.02
2018-12-07T21:47:15.814Z,75.22
2018-12-07T21:49:43.747Z,75.77
2018-12-07T21:52:15.043Z,75.64
2018-12-07T21:54:42.830Z,75.95
2018-12-07T21:57:10.752Z,76.67
2018-12-07T21:59:38.299Z,77.47
2018-12-07T22:02:05.764Z,78.64
2018-12-07T22:04:33.392Z,78.43
2018-12-07T22:07:01.074Z,77.99
2018-12-07T22:09:28.741Z,78.07
2018-12-07T22:11:56.344Z,76.71
2018-12-07T22:14:23.815Z,77.67
2018-12-07T22:16:51.600Z,78.05
2018-12-07T22:19:19.095Z,77.89
2018-12-07T22:21:46.704Z,77.13
2018-12-07T22:24:14.243Z,77.39
2018-12-07T22:26:41.711Z,77.29
2018-12-07T22:29:09.341Z,77.21
2018-12-07T22:31:36.939Z,76.79
2018-12-07T22:34:04.582Z,76.91
2018-12-07T22:36:32.346Z,77.06
2018-12-07T22:39:00.146Z,77.42
2018-12-07T22:41:27.963Z,77.75
2018-12-07T22:43:55.807Z,78.05
2018-12-07T22:46:23.389Z,78.10
2018-12-07T22:48:51.237Z,78.06
2018-12-07T22:51:20.868Z,78.22
2018-12-07T22:53:48.373Z,78.08
2018-12-07T22:56:15.933Z,77.86
2018-12-07T22:58:43.330Z,78.17
2018-12-07T23:01:10.775Z,77.94
2018-12-07T23:03:38.165Z,77.68
2018-12-07T23:06:05.605Z,77.55
2018-12-07T23:08:33.118Z,77.06
2018-12-07T23:11:00.566Z,76.90
2018-12-07T23:13:27.965Z,76.59
2018-12-07T23:15:55.349Z,76.36
2018-12-07T23:18:22.754Z,75.64
2018-12-07T23:20:50.223Z,76.33
2018-12-07T23:23:17.699Z,76.16
2018-12-07T23:25:45.134Z,75.39
2018-12-07T23:28:12.543Z,74.95
2018-12-07T23:30:40.156Z,75.09
2018-12-07T23:33:07.554Z,74.98
2018-12-07T23:35:35.022Z,74.64
2018-12-07T23:38:02.427Z,74.17
2018-12-07T23:40:29.812Z,73.84
2018-12-07T23:42:59.184Z,73.92
2018-12-07T23:45:26.610Z,74.40
2018-12-07T23:47:54.083Z,73.34
2018-12-07T23:50:21.592Z,73.48
2018-12-07T23:52:49.041Z,73.81
2018-12-07T23:55:16.565Z,74.04
2018-12-07T23:57:43.997Z,73.91
